Carnival Triumph — C6FN5 — position and weather

sailwx.info

Track history (hours):
 
Tides and Currents Weather Stations Pressure Air Temp Water Temp Dewpoint Dewpoint Depression Visibility Wind Speed Wind Dir Waves Ship Positions

Carnival Triumph

Operator: Carnival Cruise Lines

Last reported at 2018-Dec-12 12:00 UTC. Time now 2018-Dec-12 14:26 UTC.
Position N 24°48' W 089°18'.

Type: Passenger vessel. MMSI: 308045000.

Wind from 090 at 12 knots

Barometer 1027.4 mb
Air temperature 20.0 ° C
Visibility: greater than 10.8 NM
Dewpoint 15.3 ° C
Water temperature 25.0 ° C

Date/timePositionNaut miles runAvg speedWind from/ knotsBaromVisibWave heightAir tempDewpointWater temp
2018-Dec-12 12:00N 24°48' W 089°18'4214.0 090 / 121027.410.8 20.015.325.0
2018-Dec-12 09:00N 24°06' W 089°18'10821.6 120 / 101026.610.8 20.016.925.0
2018-Dec-12 04:00N 22°18' W 089°18'3311.8 090 / 151029.610.8 20.016.925.0
2018-Dec-12 01:14N 21°49' W 089°35'517.0
2018-Dec-12 00:58N 21°45' W 089°36'816.7
2018-Dec-12 00:30N 21°37' W 089°37'713.9
2018-Dec-12 00:00N 21°31' W 089°40'611.1
2018-Dec-11 23:30N 21°26' W 089°42'510.1
2018-Dec-11 23:01N 21°21' W 089°41'0 0.4
2018-Dec-11 22:28N 21°21' W 089°40'0 0.0
2018-Dec-11 21:57N 21°21' W 089°40'0 0.0
2018-Dec-11 21:27N 21°21' W 089°40'0 0.0
2018-Dec-11 20:57N 21°21' W 089°40'0 0.0
2018-Dec-11 20:27N 21°21' W 089°40'0 0.0
2018-Dec-11 19:58N 21°21' W 089°40'0 0.0
2018-Dec-11 19:28N 21°21' W 089°40'0 0.0
2018-Dec-11 18:57N 21°21' W 089°40'0 0.0
2018-Dec-11 18:28N 21°21' W 089°40'0 0.0
2018-Dec-11 17:57N 21°21' W 089°40'0 0.0
2018-Dec-11 17:27N 21°21' W 089°40'0 0.0
2018-Dec-11 17:00N 21°21' W 089°40'0 0.0
2018-Dec-11 16:30N 21°21' W 089°40'0 0.0
2018-Dec-11 15:58N 21°21' W 089°40'0 0.0
2018-Dec-11 15:30N 21°21' W 089°40'0 0.0
2018-Dec-11 15:00N 21°21' W 089°40'0 0.4
2018-Dec-11 14:31N 21°21' W 089°41'611.5
2018-Dec-11 14:00N 21°26' W 089°41'5 9.8
2018-Dec-11 13:30N 21°31' W 089°39'714.5
2018-Dec-11 13:00N 21°37' W 089°36'917.4
2018-Dec-11 12:30N 21°42' W 089°28'8919.7
2018-Dec-11 08:00N 22°00' W 087°54'6716.8 360 / 401026.810.8 21.018.026.0
2018-Dec-11 04:00N 21°54' W 086°42'5418.1 350 / 251027.010.8 22.019.027.0
2018-Dec-11 01:00N 21°00' W 086°36'2624.0 350 / 261025.810.8 23.020.128.0
2018-Dec-10 23:54N 20°40' W 086°54'819.0
2018-Dec-10 23:30N 20°34' W 086°59'5 9.4
2018-Dec-10 22:57N 20°29' W 086°59'0 0.0
2018-Dec-10 22:30N 20°29' W 086°59'0 0.0
2018-Dec-10 22:00N 20°29' W 086°59'0 0.0
2018-Dec-10 21:29N 20°29' W 086°59'0 0.0
2018-Dec-10 21:00N 20°29' W 086°59'0 0.0
2018-Dec-10 20:30N 20°29' W 086°59'0 0.0
2018-Dec-10 20:00N 20°29' W 086°59'0 0.0
2018-Dec-10 19:30N 20°29' W 086°59'0 0.0
2018-Dec-10 19:00N 20°29' W 086°59'0 0.0
2018-Dec-10 18:30N 20°29' W 086°59'0 0.0
2018-Dec-10 18:00N 20°29' W 086°59'0 0.0
2018-Dec-10 17:30N 20°29' W 086°59'0 0.0
2018-Dec-10 17:00N 20°29' W 086°59'0 0.0
2018-Dec-10 16:27N 20°29' W 086°59'0 0.0
2018-Dec-10 16:00N 20°29' W 086°59'0 0.0
2018-Dec-10 15:30N 20°29' W 086°59'0 0.0
2018-Dec-10 15:00N 20°29' W 086°59'0 0.0
2018-Dec-10 14:30N 20°29' W 086°59'0 0.0
2018-Dec-10 13:59N 20°29' W 086°59'0 0.3
2018-Dec-10 13:30N 20°29' W 086°59'4 8.2
2018-Dec-10 13:00N 20°33' W 086°58'611.9
2018-Dec-10 12:30N 20°38' W 086°54'6514.5
2018-Dec-10 08:00N 21°42' W 086°42'9619.2 350 / 181022.310.8 24.019.626.0
2018-Dec-10 03:00N 23°12' W 087°18'11318.8 310 / 211023.510.8 23.020.126.0
2018-Dec-09 21:00N 25°00' W 087°54'10116.9 300 / 271021.010.8 22.017.525.0
2018-Dec-09 15:00N 26°36' W 088°30'5618.8 310 / 261021.810.8 20.016.924.0
2018-Dec-09 12:00N 27°30' W 088°48'5116.9 300 / 281019.610.8 19.015.925.0
2018-Dec-09 09:00N 28°18' W 089°06'9112.6 310 / 321019.310.8 16.012.723.0
2018-Dec-09 01:48N 29°38' W 089°55'411.8
2018-Dec-09 01:30N 29°41' W 089°58'713.1
2018-Dec-09 01:00N 29°47' W 090°01'714.0
2018-Dec-09 00:30N 29°53' W 089°58'3 6.1
2018-Dec-09 00:00N 29°55' W 089°55'612.0
2018-Dec-08 23:30N 29°57' W 090°02'2 3.6
2018-Dec-08 22:58N 29°56' W 090°04'0 0.0
2018-Dec-08 22:28N 29°56' W 090°04'0 0.0
2018-Dec-08 22:00N 29°56' W 090°04'0 0.0
2018-Dec-08 21:28N 29°56' W 090°04'0 0.0
2018-Dec-08 20:58N 29°56' W 090°04'0 0.0
2018-Dec-08 20:30N 29°56' W 090°04'0 0.0
2018-Dec-08 19:58N 29°56' W 090°04'0 0.0
2018-Dec-08 19:30N 29°56' W 090°04'0 0.0
2018-Dec-08 18:58N 29°56' W 090°04'0 0.0
2018-Dec-08 18:30N 29°56' W 090°04'0 0.0
2018-Dec-08 18:00N 29°56' W 090°04'0 0.0
2018-Dec-08 17:30N 29°56' W 090°04'0 0.0
2018-Dec-08 16:58N 29°56' W 090°04'0 0.0
2018-Dec-08 16:30N 29°56' W 090°04'0 0.0
2018-Dec-08 16:00N 29°56' W 090°04'0 0.0
2018-Dec-08 15:30N 29°56' W 090°04'0 0.0
2018-Dec-08 15:00N 29°56' W 090°04'0 0.0
2018-Dec-08 14:30N 29°56' W 090°04'0 0.0
2018-Dec-08 14:00N 29°56' W 090°04'0 0.0
2018-Dec-08 13:27N 29°56' W 090°04'0 0.0
2018-Dec-08 13:00N 29°56' W 090°04'0 0.0
2018-Dec-08 12:30N 29°56' W 090°04'0 0.0
2018-Dec-08 11:58N 29°56' W 090°04'0 0.0
2018-Dec-08 11:28N 29°56' W 090°04'0 0.0
2018-Dec-08 10:58N 29°56' W 090°04'0 0.0
2018-Dec-08 10:25N 29°56' W 090°04'0 0.4
2018-Dec-08 10:00N 29°57' W 090°04'4 7.5
2018-Dec-08 09:30N 29°56' W 089°59'510.6
2018-Dec-08 09:00N 29°53' W 089°54'4 8.3
2018-Dec-08 08:31N 29°51' W 089°59'612.6
2018-Dec-08 08:00N 29°45' W 090°01'16013.3
2018-Dec-07 20:00N 27°12' W 089°12'7815.6 100 / 251026.410.8 20.916.424.1
2018-Dec-07 15:00N 25°54' W 089°12'6622.1 090 / 201030.427.0 21.018.024.0
2018-Dec-07 12:00N 24°48' W 089°18'9018.0 100 / 301028.110.8 22.019.025.0
2018-Dec-07 07:00N 23°18' W 089°18'6015.0 080 / 351026.910.8 24.019.625.0
2018-Dec-07 03:00N 22°18' W 089°18'3517.1 080 / 261027.210.8 24.021.126.0
2018-Dec-07 00:57N 21°47' W 089°35'716.2
2018-Dec-07 00:30N 21°40' W 089°37'816.0
2018-Dec-07 00:01N 21°32' W 089°40'713.9
2018-Dec-06 23:30N 21°26' W 089°42'510.3
2018-Dec-06 23:00N 21°21' W 089°41'0 0.3
2018-Dec-06 22:27N 21°21' W 089°40'0 0.0
2018-Dec-06 22:00N 21°21' W 089°40'0 0.0
2018-Dec-06 21:27N 21°21' W 089°40'0 0.0
2018-Dec-06 20:57N 21°21' W 089°40'0 0.0
2018-Dec-06 20:27N 21°21' W 089°40'0 0.0
2018-Dec-06 19:57N 21°21' W 089°40'0 0.0
2018-Dec-06 19:30N 21°21' W 089°40'0 0.0
2018-Dec-06 19:00N 21°21' W 089°40'0 0.0
2018-Dec-06 18:30N 21°21' W 089°40'0 0.0
2018-Dec-06 18:00N 21°21' W 089°40'0 0.0
2018-Dec-06 17:29N 21°21' W 089°40'0 0.0
2018-Dec-06 16:58N 21°21' W 089°40'0 0.0
2018-Dec-06 16:30N 21°21' W 089°40'0 0.0
2018-Dec-06 15:59N 21°21' W 089°40'0 0.0
2018-Dec-06 15:29N 21°21' W 089°40'0 0.0
2018-Dec-06 14:58N 21°21' W 089°40'0 0.3
2018-Dec-06 14:30N 21°21' W 089°41'611.2
2018-Dec-06 14:00N 21°26' W 089°41'613.0
2018-Dec-06 13:30N 21°32' W 089°39'917.6
2018-Dec-06 13:01N 21°40' W 089°35'1117.2
2018-Dec-06 12:21N 21°44' W 089°23'8916.7
2018-Dec-06 07:00N 22°00' W 087°48'7117.8 050 / 251025.110.8 25.022.225.0
2018-Dec-06 03:00N 21°36' W 086°36'5918.5 050 / 551023.310.8 25.022.228.0
2018-Dec-05 23:49N 20°39' W 086°53'619.8
2018-Dec-05 23:30N 20°34' W 086°56'611.8
2018-Dec-05 23:00N 20°29' W 086°59'0 0.4
2018-Dec-05 22:30N 20°29' W 086°59'0 0.0
2018-Dec-05 22:00N 20°29' W 086°59'0 0.0
2018-Dec-05 21:30N 20°29' W 086°59'0 0.0
2018-Dec-05 21:00N 20°29' W 086°59'0 0.0
2018-Dec-05 20:28N 20°29' W 086°59'0 0.0
2018-Dec-05 20:00N 20°29' W 086°59'0 0.0
2018-Dec-05 19:30N 20°29' W 086°59'0 0.0
2018-Dec-05 18:58N 20°29' W 086°59'0 0.0
2018-Dec-05 18:30N 20°29' W 086°59'0 0.0
2018-Dec-05 18:00N 20°29' W 086°59'0 0.0
2018-Dec-05 17:28N 20°29' W 086°59'0 0.0
2018-Dec-05 16:58N 20°29' W 086°59'0 0.0
2018-Dec-05 16:30N 20°29' W 086°59'0 0.0
2018-Dec-05 15:58N 20°29' W 086°59'0 0.0
2018-Dec-05 15:30N 20°29' W 086°59'0 0.0
2018-Dec-05 15:00N 20°29' W 086°59'0 0.0
2018-Dec-05 14:28N 20°29' W 086°59'0 0.0
2018-Dec-05 14:00N 20°29' W 086°59'0 0.5
2018-Dec-05 13:30N 20°29' W 086°59'4 8.5
2018-Dec-05 13:01N 20°33' W 086°58'611.7
2018-Dec-05 12:30N 20°38' W 086°54'1510.0
2018-Dec-05 11:00N 20°48' W 086°42'11015.8 030 / 21020.310.8 27.021.328.0
2018-Dec-05 04:00N 22°36' W 087°06'8822.1 270 / 11022.210.8 26.023.227.0
2018-Dec-05 00:00N 24°00' W 087°36'13216.5 010 / 101020.2 5.4 25.023.626.0
2018-Dec-04 16:00N 26°06' W 088°18'7518.8 040 / 291022.310.8 22.019.024.0
2018-Dec-04 12:00N 27°18' W 088°42'15714.4 040 / 301022.710.8 21.019.524.0
2018-Dec-04 01:04N 29°40' W 089°58'112.4
2018-Dec-04 01:00N 29°41' W 089°58'613.0
2018-Dec-04 00:30N 29°47' W 090°01'713.8
2018-Dec-04 00:00N 29°53' W 089°58'3 6.4
2018-Dec-03 23:30N 29°55' W 089°55'612.8
2018-Dec-03 23:00N 29°57' W 090°02'2 3.1
2018-Dec-03 22:28N 29°56' W 090°04'0 0.0
2018-Dec-03 22:00N 29°56' W 090°04'0 0.0
2018-Dec-03 21:30N 29°56' W 090°04'0 0.0
2018-Dec-03 21:00N 29°56' W 090°04'0 0.0
2018-Dec-03 20:30N 29°56' W 090°04'0 0.0
2018-Dec-03 20:00N 29°56' W 090°04'0 0.0
2018-Dec-03 19:28N 29°56' W 090°04'0 0.0
2018-Dec-03 19:00N 29°56' W 090°04'0 0.0
2018-Dec-03 18:30N 29°56' W 090°04'0 0.0
2018-Dec-03 17:58N 29°56' W 090°04'0 0.0
2018-Dec-03 17:30N 29°56' W 090°04'0 0.0
2018-Dec-03 16:57N 29°56' W 090°04'0 0.0
2018-Dec-03 16:28N 29°56' W 090°04'0 0.0
2018-Dec-03 16:00N 29°56' W 090°04'0 0.0
2018-Dec-03 15:25N 29°56' W 090°04'0 0.0
2018-Dec-03 14:58N 29°56' W 090°04'0 0.0
2018-Dec-03 14:30N 29°56' W 090°04'0 0.0
2018-Dec-03 13:59N 29°56' W 090°04'0 0.0
2018-Dec-03 13:29N 29°56' W 090°04'0 0.0
2018-Dec-03 12:59N 29°56' W 090°04'0 0.0
2018-Dec-03 12:28N 29°56' W 090°04'0 0.0
2018-Dec-03 12:00N 29°56' W 090°04'0 0.0
2018-Dec-03 11:30N 29°56' W 090°04'0 0.0
2018-Dec-03 11:00N 29°56' W 090°04'0 0.1
2018-Dec-03 10:30N 29°56' W 090°04'3 6.8
2018-Dec-03 10:00N 29°56' W 089°60'510.3
2018-Dec-03 09:30N 29°54' W 089°54'4 7.9
2018-Dec-03 09:00N 29°52' W 089°59'612.2
2018-Dec-03 08:30N 29°47' W 090°01'712.9
2018-Dec-03 08:00N 29°41' W 089°58'611.3
2018-Dec-03 07:30N 29°37' W 089°53'814.0
2018-Dec-03 06:55N 29°32' W 089°45'614.9
2018-Dec-03 06:30N 29°28' W 089°40'1112.1
2018-Dec-03 05:37N 29°21' W 089°31'212.8
2018-Dec-03 05:30N 29°21' W 089°29'25117.3
2018-Dec-02 15:00N 25°24' W 087°54'5618.8 190 / 261016.810.8 26.023.226.0
2018-Dec-02 12:00N 24°30' W 087°36'   190 / 211015.310.8 26.021.8
Track history (hours):
 
Tides and Currents Weather Stations Pressure Air Temp Water Temp Dewpoint Dewpoint Depression Visibility Wind Speed Wind Dir Waves Ship Positions

Carnival Triumph

Operator: Carnival Cruise Lines

Last reported at 2018-Dec-12 12:00 UTC. Time now 2018-Dec-12 14:26 UTC.
Position N 24°48' W 089°18'.

Type: Passenger vessel. MMSI: 308045000.

Wind from 090 at 12 knots

Barometer 1027.4 mb
Air temperature 20.0 ° C
Visibility: greater than 10.8 NM
Dewpoint 15.3 ° C
Water temperature 25.0 ° C

Date/timePositionNaut miles runAvg speedWind from/ knotsBaromVisibWave heightAir tempDewpointWater temp
2018-Dec-12 12:00N 24°48' W 089°18'4214.0 090 / 121027.410.8 20.015.325.0
2018-Dec-12 09:00N 24°06' W 089°18'10821.6 120 / 101026.610.8 20.016.925.0
2018-Dec-12 04:00N 22°18' W 089°18'3311.8 090 / 151029.610.8 20.016.925.0
2018-Dec-12 01:14N 21°49' W 089°35'517.0
2018-Dec-12 00:58N 21°45' W 089°36'816.7
2018-Dec-12 00:30N 21°37' W 089°37'713.9
2018-Dec-12 00:00N 21°31' W 089°40'611.1
2018-Dec-11 23:30N 21°26' W 089°42'510.1
2018-Dec-11 23:01N 21°21' W 089°41'0 0.4
2018-Dec-11 22:28N 21°21' W 089°40'0 0.0
2018-Dec-11 21:57N 21°21' W 089°40'0 0.0
2018-Dec-11 21:27N 21°21' W 089°40'0 0.0
2018-Dec-11 20:57N 21°21' W 089°40'0 0.0
2018-Dec-11 20:27N 21°21' W 089°40'0 0.0
2018-Dec-11 19:58N 21°21' W 089°40'0 0.0
2018-Dec-11 19:28N 21°21' W 089°40'0 0.0
2018-Dec-11 18:57N 21°21' W 089°40'0 0.0
2018-Dec-11 18:28N 21°21' W 089°40'0 0.0
2018-Dec-11 17:57N 21°21' W 089°40'0 0.0
2018-Dec-11 17:27N 21°21' W 089°40'0 0.0
2018-Dec-11 17:00N 21°21' W 089°40'0 0.0
2018-Dec-11 16:30N 21°21' W 089°40'0 0.0
2018-Dec-11 15:58N 21°21' W 089°40'0 0.0
2018-Dec-11 15:30N 21°21' W 089°40'0 0.0
2018-Dec-11 15:00N 21°21' W 089°40'0 0.4
2018-Dec-11 14:31N 21°21' W 089°41'611.5
2018-Dec-11 14:00N 21°26' W 089°41'5 9.8
2018-Dec-11 13:30N 21°31' W 089°39'714.5
2018-Dec-11 13:00N 21°37' W 089°36'917.4
2018-Dec-11 12:30N 21°42' W 089°28'8919.7
2018-Dec-11 08:00N 22°00' W 087°54'6716.8 360 / 401026.810.8 21.018.026.0
2018-Dec-11 04:00N 21°54' W 086°42'5418.1 350 / 251027.010.8 22.019.027.0
2018-Dec-11 01:00N 21°00' W 086°36'2624.0 350 / 261025.810.8 23.020.128.0
2018-Dec-10 23:54N 20°40' W 086°54'819.0
2018-Dec-10 23:30N 20°34' W 086°59'5 9.4
2018-Dec-10 22:57N 20°29' W 086°59'0 0.0
2018-Dec-10 22:30N 20°29' W 086°59'0 0.0
2018-Dec-10 22:00N 20°29' W 086°59'0 0.0
2018-Dec-10 21:29N 20°29' W 086°59'0 0.0
2018-Dec-10 21:00N 20°29' W 086°59'0 0.0
2018-Dec-10 20:30N 20°29' W 086°59'0 0.0
2018-Dec-10 20:00N 20°29' W 086°59'0 0.0
2018-Dec-10 19:30N 20°29' W 086°59'0 0.0
2018-Dec-10 19:00N 20°29' W 086°59'0 0.0
2018-Dec-10 18:30N 20°29' W 086°59'0 0.0
2018-Dec-10 18:00N 20°29' W 086°59'0 0.0
2018-Dec-10 17:30N 20°29' W 086°59'0 0.0
2018-Dec-10 17:00N 20°29' W 086°59'0 0.0
2018-Dec-10 16:27N 20°29' W 086°59'0 0.0
2018-Dec-10 16:00N 20°29' W 086°59'0 0.0
2018-Dec-10 15:30N 20°29' W 086°59'0 0.0
2018-Dec-10 15:00N 20°29' W 086°59'0 0.0
2018-Dec-10 14:30N 20°29' W 086°59'0 0.0
2018-Dec-10 13:59N 20°29' W 086°59'0 0.3
2018-Dec-10 13:30N 20°29' W 086°59'4 8.2
2018-Dec-10 13:00N 20°33' W 086°58'611.9
2018-Dec-10 12:30N 20°38' W 086°54'6514.5
2018-Dec-10 08:00N 21°42' W 086°42'9619.2 350 / 181022.310.8 24.019.626.0
2018-Dec-10 03:00N 23°12' W 087°18'11318.8 310 / 211023.510.8 23.020.126.0
2018-Dec-09 21:00N 25°00' W 087°54'10116.9 300 / 271021.010.8 22.017.525.0
2018-Dec-09 15:00N 26°36' W 088°30'5618.8 310 / 261021.810.8 20.016.924.0
2018-Dec-09 12:00N 27°30' W 088°48'5116.9 300 / 281019.610.8 19.015.925.0
2018-Dec-09 09:00N 28°18' W 089°06'9112.6 310 / 321019.310.8 16.012.723.0
2018-Dec-09 01:48N 29°38' W 089°55'411.8
2018-Dec-09 01:30N 29°41' W 089°58'713.1
2018-Dec-09 01:00N 29°47' W 090°01'714.0
2018-Dec-09 00:30N 29°53' W 089°58'3 6.1
2018-Dec-09 00:00N 29°55' W 089°55'612.0
2018-Dec-08 23:30N 29°57' W 090°02'2 3.6
2018-Dec-08 22:58N 29°56' W 090°04'0 0.0
2018-Dec-08 22:28N 29°56' W 090°04'0 0.0
2018-Dec-08 22:00N 29°56' W 090°04'0 0.0
2018-Dec-08 21:28N 29°56' W 090°04'0 0.0
2018-Dec-08 20:58N 29°56' W 090°04'0 0.0
2018-Dec-08 20:30N 29°56' W 090°04'0 0.0
2018-Dec-08 19:58N 29°56' W 090°04'0 0.0
2018-Dec-08 19:30N 29°56' W 090°04'0 0.0
2018-Dec-08 18:58N 29°56' W 090°04'0 0.0
2018-Dec-08 18:30N 29°56' W 090°04'0 0.0
2018-Dec-08 18:00N 29°56' W 090°04'0 0.0
2018-Dec-08 17:30N 29°56' W 090°04'0 0.0
2018-Dec-08 16:58N 29°56' W 090°04'0 0.0
2018-Dec-08 16:30N 29°56' W 090°04'0 0.0
2018-Dec-08 16:00N 29°56' W 090°04'0 0.0
2018-Dec-08 15:30N 29°56' W 090°04'0 0.0
2018-Dec-08 15:00N 29°56' W 090°04'0 0.0
2018-Dec-08 14:30N 29°56' W 090°04'0 0.0
2018-Dec-08 14:00N 29°56' W 090°04'0 0.0
2018-Dec-08 13:27N 29°56' W 090°04'0 0.0
2018-Dec-08 13:00N 29°56' W 090°04'0 0.0
2018-Dec-08 12:30N 29°56' W 090°04'0 0.0
2018-Dec-08 11:58N 29°56' W 090°04'0 0.0
2018-Dec-08 11:28N 29°56' W 090°04'0 0.0
2018-Dec-08 10:58N 29°56' W 090°04'0 0.0
2018-Dec-08 10:25N 29°56' W 090°04'0 0.4
2018-Dec-08 10:00N 29°57' W 090°04'4 7.5
2018-Dec-08 09:30N 29°56' W 089°59'510.6
2018-Dec-08 09:00N 29°53' W 089°54'4 8.3
2018-Dec-08 08:31N 29°51' W 089°59'612.6
2018-Dec-08 08:00N 29°45' W 090°01'16013.3
2018-Dec-07 20:00N 27°12' W 089°12'7815.6 100 / 251026.410.8 20.916.424.1
2018-Dec-07 15:00N 25°54' W 089°12'6622.1 090 / 201030.427.0 21.018.024.0
2018-Dec-07 12:00N 24°48' W 089°18'9018.0 100 / 301028.110.8 22.019.025.0
2018-Dec-07 07:00N 23°18' W 089°18'6015.0 080 / 351026.910.8 24.019.625.0
2018-Dec-07 03:00N 22°18' W 089°18'3517.1 080 / 261027.210.8 24.021.126.0
2018-Dec-07 00:57N 21°47' W 089°35'716.2
2018-Dec-07 00:30N 21°40' W 089°37'816.0
2018-Dec-07 00:01N 21°32' W 089°40'713.9
2018-Dec-06 23:30N 21°26' W 089°42'510.3
2018-Dec-06 23:00N 21°21' W 089°41'0 0.3
2018-Dec-06 22:27N 21°21' W 089°40'0 0.0
2018-Dec-06 22:00N 21°21' W 089°40'0 0.0
2018-Dec-06 21:27N 21°21' W 089°40'0 0.0
2018-Dec-06 20:57N 21°21' W 089°40'0 0.0
2018-Dec-06 20:27N 21°21' W 089°40'0 0.0
2018-Dec-06 19:57N 21°21' W 089°40'0 0.0
2018-Dec-06 19:30N 21°21' W 089°40'0 0.0
2018-Dec-06 19:00N 21°21' W 089°40'0 0.0
2018-Dec-06 18:30N 21°21' W 089°40'0 0.0
2018-Dec-06 18:00N 21°21' W 089°40'0 0.0
2018-Dec-06 17:29N 21°21' W 089°40'0 0.0
2018-Dec-06 16:58N 21°21' W 089°40'0 0.0
2018-Dec-06 16:30N 21°21' W 089°40'0 0.0
2018-Dec-06 15:59N 21°21' W 089°40'0 0.0
2018-Dec-06 15:29N 21°21' W 089°40'0 0.0
2018-Dec-06 14:58N 21°21' W 089°40'0 0.3
2018-Dec-06 14:30N 21°21' W 089°41'611.2
2018-Dec-06 14:00N 21°26' W 089°41'613.0
2018-Dec-06 13:30N 21°32' W 089°39'917.6
2018-Dec-06 13:01N 21°40' W 089°35'1117.2
2018-Dec-06 12:21N 21°44' W 089°23'8916.7
2018-Dec-06 07:00N 22°00' W 087°48'7117.8 050 / 251025.110.8 25.022.225.0
2018-Dec-06 03:00N 21°36' W 086°36'5918.5 050 / 551023.310.8 25.022.228.0
2018-Dec-05 23:49N 20°39' W 086°53'619.8
2018-Dec-05 23:30N 20°34' W 086°56'611.8
2018-Dec-05 23:00N 20°29' W 086°59'0 0.4
2018-Dec-05 22:30N 20°29' W 086°59'0 0.0
2018-Dec-05 22:00N 20°29' W 086°59'0 0.0
2018-Dec-05 21:30N 20°29' W 086°59'0 0.0
2018-Dec-05 21:00N 20°29' W 086°59'0 0.0
2018-Dec-05 20:28N 20°29' W 086°59'0 0.0
2018-Dec-05 20:00N 20°29' W 086°59'0 0.0
2018-Dec-05 19:30N 20°29' W 086°59'0 0.0
2018-Dec-05 18:58N 20°29' W 086°59'0 0.0
2018-Dec-05 18:30N 20°29' W 086°59'0 0.0
2018-Dec-05 18:00N 20°29' W 086°59'0 0.0
2018-Dec-05 17:28N 20°29' W 086°59'0 0.0
2018-Dec-05 16:58N 20°29' W 086°59'0 0.0
2018-Dec-05 16:30N 20°29' W 086°59'0 0.0
2018-Dec-05 15:58N 20°29' W 086°59'0 0.0
2018-Dec-05 15:30N 20°29' W 086°59'0 0.0
2018-Dec-05 15:00N 20°29' W 086°59'0 0.0
2018-Dec-05 14:28N 20°29' W 086°59'0 0.0
2018-Dec-05 14:00N 20°29' W 086°59'0 0.5
2018-Dec-05 13:30N 20°29' W 086°59'4 8.5
2018-Dec-05 13:01N 20°33' W 086°58'611.7
2018-Dec-05 12:30N 20°38' W 086°54'1510.0
2018-Dec-05 11:00N 20°48' W 086°42'11015.8 030 / 21020.310.8 27.021.328.0
2018-Dec-05 04:00N 22°36' W 087°06'8822.1 270 / 11022.210.8 26.023.227.0
2018-Dec-05 00:00N 24°00' W 087°36'13216.5 010 / 101020.2 5.4 25.023.626.0
2018-Dec-04 16:00N 26°06' W 088°18'7518.8 040 / 291022.310.8 22.019.024.0
2018-Dec-04 12:00N 27°18' W 088°42'15714.4 040 / 301022.710.8 21.019.524.0
2018-Dec-04 01:04N 29°40' W 089°58'112.4
2018-Dec-04 01:00N 29°41' W 089°58'613.0
2018-Dec-04 00:30N 29°47' W 090°01'713.8
2018-Dec-04 00:00N 29°53' W 089°58'3 6.4
2018-Dec-03 23:30N 29°55' W 089°55'612.8
2018-Dec-03 23:00N 29°57' W 090°02'2 3.1
2018-Dec-03 22:28N 29°56' W 090°04'0 0.0
2018-Dec-03 22:00N 29°56' W 090°04'0 0.0
2018-Dec-03 21:30N 29°56' W 090°04'0 0.0
2018-Dec-03 21:00N 29°56' W 090°04'0 0.0
2018-Dec-03 20:30N 29°56' W 090°04'0 0.0
2018-Dec-03 20:00N 29°56' W 090°04'0 0.0
2018-Dec-03 19:28N 29°56' W 090°04'0 0.0
2018-Dec-03 19:00N 29°56' W 090°04'0 0.0
2018-Dec-03 18:30N 29°56' W 090°04'0 0.0
2018-Dec-03 17:58N 29°56' W 090°04'0 0.0
2018-Dec-03 17:30N 29°56' W 090°04'0 0.0
2018-Dec-03 16:57N 29°56' W 090°04'0 0.0
2018-Dec-03 16:28N 29°56' W 090°04'0 0.0
2018-Dec-03 16:00N 29°56' W 090°04'0 0.0
2018-Dec-03 15:25N 29°56' W 090°04'0 0.0
2018-Dec-03 14:58N 29°56' W 090°04'0 0.0
2018-Dec-03 14:30N 29°56' W 090°04'0 0.0
2018-Dec-03 13:59N 29°56' W 090°04'0 0.0
2018-Dec-03 13:29N 29°56' W 090°04'0 0.0
2018-Dec-03 12:59N 29°56' W 090°04'0 0.0
2018-Dec-03 12:28N 29°56' W 090°04'0 0.0
2018-Dec-03 12:00N 29°56' W 090°04'0 0.0
2018-Dec-03 11:30N 29°56' W 090°04'0 0.0
2018-Dec-03 11:00N 29°56' W 090°04'0 0.1
2018-Dec-03 10:30N 29°56' W 090°04'3 6.8
2018-Dec-03 10:00N 29°56' W 089°60'510.3
2018-Dec-03 09:30N 29°54' W 089°54'4 7.9
2018-Dec-03 09:00N 29°52' W 089°59'612.2
2018-Dec-03 08:30N 29°47' W 090°01'712.9
2018-Dec-03 08:00N 29°41' W 089°58'611.3
2018-Dec-03 07:30N 29°37' W 089°53'814.0
2018-Dec-03 06:55N 29°32' W 089°45'614.9
2018-Dec-03 06:30N 29°28' W 089°40'1112.1
2018-Dec-03 05:37N 29°21' W 089°31'212.8
2018-Dec-03 05:30N 29°21' W 089°29'25117.3
2018-Dec-02 15:00N 25°24' W 087°54'5618.8 190 / 261016.810.8 26.023.226.0
2018-Dec-02 12:00N 24°30' W 087°36'   190 / 211015.310.8 26.021.8

Dump ship's entire track history